sensor_id;sensor_type;location;lat;lon;timestamp;temperature;humidity
4615;DHT22;2320;51.362;6.946;2022-11-12T00:01:20;10.80;99.90
4615;DHT22;2320;51.362;6.946;2022-11-12T00:03:46;10.80;99.90
4615;DHT22;2320;51.362;6.946;2022-11-12T00:06:11;10.80;99.90
4615;DHT22;2320;51.362;6.946;2022-11-12T00:08:37;10.70;99.90
4615;DHT22;2320;51.362;6.946;2022-11-12T00:11:02;10.50;99.90
4615;DHT22;2320;51.362;6.946;2022-11-12T00:13:29;10.40;99.90
4615;DHT22;2320;51.362;6.946;2022-11-12T00:15:54;10.30;99.90
4615;DHT22;2320;51.362;6.946;2022-11-12T00:18:20;10.20;99.90
4615;DHT22;2320;51.362;6.946;2022-11-12T00:20:45;10.00;99.90
4615;DHT22;2320;51.362;6.946;2022-11-12T00:23:11;9.90;99.90
4615;DHT22;2320;51.362;6.946;2022-11-12T00:25:36;9.80;99.90
4615;DHT22;2320;51.362;6.946;2022-11-12T00:28:03;9.70;99.90
4615;DHT22;2320;51.362;6.946;2022-11-12T00:30:28;9.70;99.90
4615;DHT22;2320;51.362;6.946;2022-11-12T00:32:54;9.70;99.90
4615;DHT22;2320;51.362;6.946;2022-11-12T00:35:19;9.60;99.90
4615;DHT22;2320;51.362;6.946;2022-11-12T00:37:45;9.50;99.90
4615;DHT22;2320;51.362;6.946;2022-11-12T00:40:10;9.40;99.90
4615;DHT22;2320;51.362;6.946;2022-11-12T00:42:36;9.40;99.90
4615;DHT22;2320;51.362;6.946;2022-11-12T00:45:01;9.20;99.90
4615;DHT22;2320;51.362;6.946;2022-11-12T00:47:27;9.20;99.90
4615;DHT22;2320;51.362;6.946;2022-11-12T00:49:52;9.10;99.90
4615;DHT22;2320;51.362;6.946;2022-11-12T00:52:17;9.00;99.90
4615;DHT22;2320;51.362;6.946;2022-11-12T00:54:43;8.90;99.90
4615;DHT22;2320;51.362;6.946;2022-11-12T00:57:08;8.90;99.90
4615;DHT22;2320;51.362;6.946;2022-11-12T00:59:34;8.90;99.90
4615;DHT22;2320;51.362;6.946;2022-11-12T01:02:00;8.80;99.90
4615;DHT22;2320;51.362;6.946;2022-11-12T01:04:25;9.00;99.90
4615;DHT22;2320;51.362;6.946;2022-11-12T01:06:51;8.80;99.90
4615;DHT22;2320;51.362;6.946;2022-11-12T01:09:16;8.70;99.90
4615;DHT22;2320;51.362;6.946;2022-11-12T01:11:41;8.70;99.90
4615;DHT22;2320;51.362;6.946;2022-11-12T01:14:07;8.70;99.90
4615;DHT22;2320;51.362;6.946;2022-11-12T01:16:35;8.70;99.90
4615;DHT22;2320;51.362;6.946;2022-11-12T01:19:01;8.60;99.90
4615;DHT22;2320;51.362;6.946;2022-11-12T01:21:28;8.50;99.90
4615;DHT22;2320;51.362;6.946;2022-11-12T01:23:55;8.40;99.90
4615;DHT22;2320;51.362;6.946;2022-11-12T01:26:21;8.40;99.90
4615;DHT22;2320;51.362;6.946;2022-11-12T01:28:46;8.40;99.90
4615;DHT22;2320;51.362;6.946;2022-11-12T01:33:41;8.40;99.90
4615;DHT22;2320;51.362;6.946;2022-11-12T01:36:07;8.40;99.90
4615;DHT22;2320;51.362;6.946;2022-11-12T01:38:33;8.30;99.90
4615;DHT22;2320;51.362;6.946;2022-11-12T01:40:59;8.30;99.90
4615;DHT22;2320;51.362;6.946;2022-11-12T01:43:25;8.20;99.90
4615;DHT22;2320;51.362;6.946;2022-11-12T01:45:50;8.10;99.90
4615;DHT22;2320;51.362;6.946;2022-11-12T01:48:37;8.00;99.90
4615;DHT22;2320;51.362;6.946;2022-11-12T01:51:04;7.90;99.90
4615;DHT22;2320;51.362;6.946;2022-11-12T01:53:30;7.90;99.90
4615;DHT22;2320;51.362;6.946;2022-11-12T01:55:58;7.80;99.90
4615;DHT22;2320;51.362;6.946;2022-11-12T01:58:24;7.80;99.90
4615;DHT22;2320;51.362;6.946;2022-11-12T02:00:53;7.70;99.90
4615;DHT22;2320;51.362;6.946;2022-11-12T02:03:20;7.60;99.90
4615;DHT22;2320;51.362;6.946;2022-11-12T02:05:59;7.70;99.90
4615;DHT22;2320;51.362;6.946;2022-11-12T02:08:27;7.50;99.90
4615;DHT22;2320;51.362;6.946;2022-11-12T02:10:53;7.50;99.90
4615;DHT22;2320;51.362;6.946;2022-11-12T02:13:19;7.50;99.90
4615;DHT22;2320;51.362;6.946;2022-11-12T02:16:04;7.50;99.90
4615;DHT22;2320;51.362;6.946;2022-11-12T02:18:29;7.50;99.90
4615;DHT22;2320;51.362;6.946;2022-11-12T02:20:56;7.50;99.90
4615;DHT22;2320;51.362;6.946;2022-11-12T02:23:22;7.40;99.90
4615;DHT22;2320;51.362;6.946;2022-11-12T02:25:47;7.20;99.90
4615;DHT22;2320;51.362;6.946;2022-11-12T02:28:13;7.30;99.90
4615;DHT22;2320;51.362;6.946;2022-11-12T02:30:41;7.40;99.90
4615;DHT22;2320;51.362;6.946;2022-11-12T02:33:06;7.30;99.90
4615;DHT22;2320;51.362;6.946;2022-11-12T02:35:32;7.20;99.90
4615;DHT22;2320;51.362;6.946;2022-11-12T02:37:57;7.20;99.90
4615;DHT22;2320;51.362;6.946;2022-11-12T02:40:23;7.20;99.90
4615;DHT22;2320;51.362;6.946;2022-11-12T02:42:48;7.10;99.90
4615;DHT22;2320;51.362;6.946;2022-11-12T02:45:14;7.00;99.90
4615;DHT22;2320;51.362;6.946;2022-11-12T02:47:40;7.00;99.90
4615;DHT22;2320;51.362;6.946;2022-11-12T02:50:06;6.90;99.90
4615;DHT22;2320;51.362;6.946;2022-11-12T02:52:31;6.90;99.90
4615;DHT22;2320;51.362;6.946;2022-11-12T02:54:57;6.70;99.90
4615;DHT22;2320;51.362;6.946;2022-11-12T02:57:23;6.80;99.90
4615;DHT22;2320;51.362;6.946;2022-11-12T02:59:48;6.80;99.90
4615;DHT22;2320;51.362;6.946;2022-11-12T03:02:13;6.80;99.90
4615;DHT22;2320;51.362;6.946;2022-11-12T03:04:39;6.80;99.90
4615;DHT22;2320;51.362;6.946;2022-11-12T03:07:05;6.70;99.90
4615;DHT22;2320;51.362;6.946;2022-11-12T03:09:30;6.70;99.90
4615;DHT22;2320;51.362;6.946;2022-11-12T03:11:56;6.70;99.90
4615;DHT22;2320;51.362;6.946;2022-11-12T03:14:21;6.60;99.90
4615;DHT22;2320;51.362;6.946;2022-11-12T03:16:47;6.50;99.90
4615;DHT22;2320;51.362;6.946;2022-11-12T03:19:12;6.50;99.90
4615;DHT22;2320;51.362;6.946;2022-11-12T03:21:38;6.60;99.90
4615;DHT22;2320;51.362;6.946;2022-11-12T03:24:03;6.60;99.90
4615;DHT22;2320;51.362;6.946;2022-11-12T03:26:29;6.50;99.90
4615;DHT22;2320;51.362;6.946;2022-11-12T03:28:54;6.60;99.90
4615;DHT22;2320;51.362;6.946;2022-11-12T03:31:20;6.50;99.90
4615;DHT22;2320;51.362;6.946;2022-11-12T03:33:45;6.40;99.90
4615;DHT22;2320;51.362;6.946;2022-11-12T03:36:11;6.50;99.90
4615;DHT22;2320;51.362;6.946;2022-11-12T03:38:37;6.40;99.90
4615;DHT22;2320;51.362;6.946;2022-11-12T03:41:02;6.40;99.90
4615;DHT22;2320;51.362;6.946;2022-11-12T03:43:27;6.30;99.90
4615;DHT22;2320;51.362;6.946;2022-11-12T03:45:53;6.30;99.90
4615;DHT22;2320;51.362;6.946;2022-11-12T03:48:18;6.20;99.90
4615;DHT22;2320;51.362;6.946;2022-11-12T03:50:44;6.30;99.90
4615;DHT22;2320;51.362;6.946;2022-11-12T03:53:09;6.20;99.90
4615;DHT22;2320;51.362;6.946;2022-11-12T03:55:35;6.20;99.90
4615;DHT22;2320;51.362;6.946;2022-11-12T03:58:01;6.40;99.90
4615;DHT22;2320;51.362;6.946;2022-11-12T04:00:26;6.30;99.90
4615;DHT22;2320;51.362;6.946;2022-11-12T04:02:52;6.20;99.90
4615;DHT22;2320;51.362;6.946;2022-11-12T04:05:18;6.10;99.90
4615;DHT22;2320;51.362;6.946;2022-11-12T04:08:03;6.00;99.90
4615;DHT22;2320;51.362;6.946;2022-11-12T04:16:54;5.90;99.90
4615;DHT22;2320;51.362;6.946;2022-11-12T04:19:38;5.90;99.90
4615;DHT22;2320;51.362;6.946;2022-11-12T04:22:22;5.70;99.90
4615;DHT22;2320;51.362;6.946;2022-11-12T04:24:48;5.70;99.90
4615;DHT22;2320;51.362;6.946;2022-11-12T04:27:32;5.80;99.90
4615;DHT22;2320;51.362;6.946;2022-11-12T04:29:58;5.80;99.90
4615;DHT22;2320;51.362;6.946;2022-11-12T04:32:48;5.70;99.90
4615;DHT22;2320;51.362;6.946;2022-11-12T04:35:13;5.70;99.90
4615;DHT22;2320;51.362;6.946;2022-11-12T04:37:39;5.80;99.90
4615;DHT22;2320;51.362;6.946;2022-11-12T04:40:18;5.80;99.90
4615;DHT22;2320;51.362;6.946;2022-11-12T04:43:02;5.90;99.90
4615;DHT22;2320;51.362;6.946;2022-11-12T04:45:47;5.80;99.90
4615;DHT22;2320;51.362;6.946;2022-11-12T04:48:14;5.60;99.90
4615;DHT22;2320;51.362;6.946;2022-11-12T04:50:39;5.60;99.90
4615;DHT22;2320;51.362;6.946;2022-11-12T04:53:05;5.50;99.90
4615;DHT22;2320;51.362;6.946;2022-11-12T04:55:31;5.60;99.90
4615;DHT22;2320;51.362;6.946;2022-11-12T04:57:56;5.60;99.90
4615;DHT22;2320;51.362;6.946;2022-11-12T05:00:22;5.70;99.90
4615;DHT22;2320;51.362;6.946;2022-11-12T05:02:50;5.50;99.90
4615;DHT22;2320;51.362;6.946;2022-11-12T05:05:16;5.70;99.90
4615;DHT22;2320;51.362;6.946;2022-11-12T05:07:41;5.70;99.90
4615;DHT22;2320;51.362;6.946;2022-11-12T05:10:07;5.60;99.90
4615;DHT22;2320;51.362;6.946;2022-11-12T05:12:33;5.50;99.90
4615;DHT22;2320;51.362;6.946;2022-11-12T05:14:58;5.50;99.90
4615;DHT22;2320;51.362;6.946;2022-11-12T05:17:24;5.50;99.90
4615;DHT22;2320;51.362;6.946;2022-11-12T05:19:49;5.50;99.90
4615;DHT22;2320;51.362;6.946;2022-11-12T05:22:15;5.50;99.90
4615;DHT22;2320;51.362;6.946;2022-11-12T05:24:41;5.40;99.90
4615;DHT22;2320;51.362;6.946;2022-11-12T05:27:11;5.30;99.90
4615;DHT22;2320;51.362;6.946;2022-11-12T05:29:37;5.40;99.90
4615;DHT22;2320;51.362;6.946;2022-11-12T05:32:03;5.50;99.90
4615;DHT22;2320;51.362;6.946;2022-11-12T05:34:29;5.40;99.90
4615;DHT22;2320;51.362;6.946;2022-11-12T05:36:54;5.30;99.90
4615;DHT22;2320;51.362;6.946;2022-11-12T05:39:20;5.20;99.90
4615;DHT22;2320;51.362;6.946;2022-11-12T05:41:45;5.10;99.90
4615;DHT22;2320;51.362;6.946;2022-11-12T05:44:11;5.10;99.90
4615;DHT22;2320;51.362;6.946;2022-11-12T05:46:36;5.10;99.90
4615;DHT22;2320;51.362;6.946;2022-11-12T05:49:02;5.20;99.90
4615;DHT22;2320;51.362;6.946;2022-11-12T05:51:27;5.20;99.90
4615;DHT22;2320;51.362;6.946;2022-11-12T05:53:53;5.10;99.90
4615;DHT22;2320;51.362;6.946;2022-11-12T05:56:18;5.20;99.90
4615;DHT22;2320;51.362;6.946;2022-11-12T05:58:44;5.20;99.90
4615;DHT22;2320;51.362;6.946;2022-11-12T06:01:09;5.20;99.90
4615;DHT22;2320;51.362;6.946;2022-11-12T06:03:35;5.10;99.90
4615;DHT22;2320;51.362;6.946;2022-11-12T06:06:01;4.90;99.90
4615;DHT22;2320;51.362;6.946;2022-11-12T06:08:26;4.90;99.90
4615;DHT22;2320;51.362;6.946;2022-11-12T06:10:52;5.00;99.90
4615;DHT22;2320;51.362;6.946;2022-11-12T06:13:18;5.20;99.90
4615;DHT22;2320;51.362;6.946;2022-11-12T06:15:44;5.10;99.90
4615;DHT22;2320;51.362;6.946;2022-11-12T06:18:10;5.10;99.90
4615;DHT22;2320;51.362;6.946;2022-11-12T06:20:35;5.00;99.90
4615;DHT22;2320;51.362;6.946;2022-11-12T06:23:01;4.90;99.90
4615;DHT22;2320;51.362;6.946;2022-11-12T06:25:26;4.90;99.90
4615;DHT22;2320;51.362;6.946;2022-11-12T06:27:52;5.00;99.90
4615;DHT22;2320;51.362;6.946;2022-11-12T06:30:18;4.80;99.90
4615;DHT22;2320;51.362;6.946;2022-11-12T06:32:49;4.80;99.90
4615;DHT22;2320;51.362;6.946;2022-11-12T06:35:15;5.00;99.90
4615;DHT22;2320;51.362;6.946;2022-11-12T06:37:41;5.00;99.90
4615;DHT22;2320;51.362;6.946;2022-11-12T06:40:07;5.00;99.90
4615;DHT22;2320;51.362;6.946;2022-11-12T06:42:33;4.90;99.90
4615;DHT22;2320;51.362;6.946;2022-11-12T06:44:58;5.00;99.90
4615;DHT22;2320;51.362;6.946;2022-11-12T06:47:24;4.90;99.90
4615;DHT22;2320;51.362;6.946;2022-11-12T06:49:49;5.00;99.90
4615;DHT22;2320;51.362;6.946;2022-11-12T06:52:15;5.10;99.90
4615;DHT22;2320;51.362;6.946;2022-11-12T06:54:40;5.10;99.90
4615;DHT22;2320;51.362;6.946;2022-11-12T06:57:06;5.10;99.90
4615;DHT22;2320;51.362;6.946;2022-11-12T06:59:31;5.00;99.90
4615;DHT22;2320;51.362;6.946;2022-11-12T07:01:57;4.90;99.90
4615;DHT22;2320;51.362;6.946;2022-11-12T07:04:22;4.90;99.90
4615;DHT22;2320;51.362;6.946;2022-11-12T07:06:48;5.00;99.90
4615;DHT22;2320;51.362;6.946;2022-11-12T07:09:13;5.00;99.90
4615;DHT22;2320;51.362;6.946;2022-11-12T07:11:39;5.10;99.90
4615;DHT22;2320;51.362;6.946;2022-11-12T07:14:05;5.00;99.90
4615;DHT22;2320;51.362;6.946;2022-11-12T07:16:31;4.80;99.90
4615;DHT22;2320;51.362;6.946;2022-11-12T07:18:56;4.80;99.90
4615;DHT22;2320;51.362;6.946;2022-11-12T07:21:22;4.90;99.90
4615;DHT22;2320;51.362;6.946;2022-11-12T07:23:47;5.10;99.90
4615;DHT22;2320;51.362;6.946;2022-11-12T07:26:17;5.00;99.90
4615;DHT22;2320;51.362;6.946;2022-11-12T07:28:43;5.10;99.90
4615;DHT22;2320;51.362;6.946;2022-11-12T07:31:10;4.90;99.90
4615;DHT22;2320;51.362;6.946;2022-11-12T07:33:36;5.40;99.90
4615;DHT22;2320;51.362;6.946;2022-11-12T07:36:05;6.20;99.90
4615;DHT22;2320;51.362;6.946;2022-11-12T07:38:32;6.80;99.90
4615;DHT22;2320;51.362;6.946;2022-11-12T07:40:59;7.70;99.90
4615;DHT22;2320;51.362;6.946;2022-11-12T07:43:24;8.50;99.90
4615;DHT22;2320;51.362;6.946;2022-11-12T07:45:50;9.50;99.90
4615;DHT22;2320;51.362;6.946;2022-11-12T07:48:15;10.10;99.90
4615;DHT22;2320;51.362;6.946;2022-11-12T07:50:41;10.60;99.90
4615;DHT22;2320;51.362;6.946;2022-11-12T07:53:06;11.40;99.90
4615;DHT22;2320;51.362;6.946;2022-11-12T07:55:32;12.30;99.90
4615;DHT22;2320;51.362;6.946;2022-11-12T07:57:58;12.90;99.90
4615;DHT22;2320;51.362;6.946;2022-11-12T08:00:23;12.90;99.90
4615;DHT22;2320;51.362;6.946;2022-11-12T08:02:49;13.00;99.90
4615;DHT22;2320;51.362;6.946;2022-11-12T08:05:15;13.10;99.90
4615;DHT22;2320;51.362;6.946;2022-11-12T08:07:40;12.90;99.90
4615;DHT22;2320;51.362;6.946;2022-11-12T08:10:06;13.40;99.90
4615;DHT22;2320;51.362;6.946;2022-11-12T08:12:31;13.80;99.90
4615;DHT22;2320;51.362;6.946;2022-11-12T08:14:57;13.80;99.90
4615;DHT22;2320;51.362;6.946;2022-11-12T08:17:22;14.40;99.90
4615;DHT22;2320;51.362;6.946;2022-11-12T08:19:48;14.70;99.90
4615;DHT22;2320;51.362;6.946;2022-11-12T08:22:13;15.30;99.90
4615;DHT22;2320;51.362;6.946;2022-11-12T08:24:39;16.20;99.90
4615;DHT22;2320;51.362;6.946;2022-11-12T08:27:05;16.60;99.90
4615;DHT22;2320;51.362;6.946;2022-11-12T08:29:30;16.60;99.90
4615;DHT22;2320;51.362;6.946;2022-11-12T08:31:56;16.90;99.90
4615;DHT22;2320;51.362;6.946;2022-11-12T08:34:21;17.20;99.90
4615;DHT22;2320;51.362;6.946;2022-11-12T08:36:46;16.50;99.90
4615;DHT22;2320;51.362;6.946;2022-11-12T08:39:12;16.70;99.90
4615;DHT22;2320;51.362;6.946;2022-11-12T08:41:37;17.20;99.90
4615;DHT22;2320;51.362;6.946;2022-11-12T08:44:03;17.30;99.90
4615;DHT22;2320;51.362;6.946;2022-11-12T08:46:29;17.80;99.90
4615;DHT22;2320;51.362;6.946;2022-11-12T08:48:55;17.60;99.90
4615;DHT22;2320;51.362;6.946;2022-11-12T08:51:20;17.50;99.90
4615;DHT22;2320;51.362;6.946;2022-11-12T08:53:46;17.70;99.90
4615;DHT22;2320;51.362;6.946;2022-11-12T08:56:11;18.40;99.90
4615;DHT22;2320;51.362;6.946;2022-11-12T08:58:37;18.70;99.90
4615;DHT22;2320;51.362;6.946;2022-11-12T09:01:04;18.60;99.90
4615;DHT22;2320;51.362;6.946;2022-11-12T09:03:30;19.60;99.90
4615;DHT22;2320;51.362;6.946;2022-11-12T09:05:56;20.10;99.90
4615;DHT22;2320;51.362;6.946;2022-11-12T09:08:22;20.30;99.90
4615;DHT22;2320;51.362;6.946;2022-11-12T09:10:48;20.00;99.90
4615;DHT22;2320;51.362;6.946;2022-11-12T09:13:14;20.50;99.90
4615;DHT22;2320;51.362;6.946;2022-11-12T09:15:39;19.80;99.90
4615;DHT22;2320;51.362;6.946;2022-11-12T09:18:06;19.10;99.90
4615;DHT22;2320;51.362;6.946;2022-11-12T09:20:31;19.00;99.90
4615;DHT22;2320;51.362;6.946;2022-11-12T09:23:01;18.00;99.90
4615;DHT22;2320;51.362;6.946;2022-11-12T09:25:27;17.70;99.90
4615;DHT22;2320;51.362;6.946;2022-11-12T09:27:53;17.00;99.90
4615;DHT22;2320;51.362;6.946;2022-11-12T09:30:18;16.80;99.90
4615;DHT22;2320;51.362;6.946;2022-11-12T09:32:44;16.80;99.90
4615;DHT22;2320;51.362;6.946;2022-11-12T09:35:09;16.70;99.90
4615;DHT22;2320;51.362;6.946;2022-11-12T09:37:38;16.60;99.90
4615;DHT22;2320;51.362;6.946;2022-11-12T09:40:04;15.90;99.90
4615;DHT22;2320;51.362;6.946;2022-11-12T09:42:30;15.60;99.90
4615;DHT22;2320;51.362;6.946;2022-11-12T09:44:59;15.30;99.90
4615;DHT22;2320;51.362;6.946;2022-11-12T09:47:31;15.20;99.90
4615;DHT22;2320;51.362;6.946;2022-11-12T09:52:29;15.70;99.90
4615;DHT22;2320;51.362;6.946;2022-11-12T09:55:04;15.90;99.90
4615;DHT22;2320;51.362;6.946;2022-11-12T09:57:32;16.20;99.90
4615;DHT22;2320;51.362;6.946;2022-11-12T09:59:57;16.20;99.90
4615;DHT22;2320;51.362;6.946;2022-11-12T10:05:03;16.10;99.90
4615;DHT22;2320;51.362;6.946;2022-11-12T10:10:09;16.30;99.90
4615;DHT22;2320;51.362;6.946;2022-11-12T10:21:41;16.60;99.90
4615;DHT22;2320;51.362;6.946;2022-11-12T10:23:48;16.60;99.90
4615;DHT22;2320;51.362;6.946;2022-11-12T10:26:17;16.40;99.90
4615;DHT22;2320;51.362;6.946;2022-11-12T10:31:19;16.30;99.90
4615;DHT22;2320;51.362;6.946;2022-11-12T10:33:45;16.40;99.90
4615;DHT22;2320;51.362;6.946;2022-11-12T10:36:16;16.30;99.90
4615;DHT22;2320;51.362;6.946;2022-11-12T10:38:44;16.40;99.90
4615;DHT22;2320;51.362;6.946;2022-11-12T10:41:22;16.50;99.90
4615;DHT22;2320;51.362;6.946;2022-11-12T10:46:20;16.50;99.90
4615;DHT22;2320;51.362;6.946;2022-11-12T10:48:53;16.60;99.90
4615;DHT22;2320;51.362;6.946;2022-11-12T10:51:26;16.60;99.90
4615;DHT22;2320;51.362;6.946;2022-11-12T10:53:52;16.80;99.90
4615;DHT22;2320;51.362;6.946;2022-11-12T10:59:07;16.70;99.90
4615;DHT22;2320;51.362;6.946;2022-11-12T11:01:33;16.70;99.90
4615;DHT22;2320;51.362;6.946;2022-11-12T11:03:58;16.90;99.90
4615;DHT22;2320;51.362;6.946;2022-11-12T11:06:24;16.80;99.90
4615;DHT22;2320;51.362;6.946;2022-11-12T11:08:53;16.90;99.90
4615;DHT22;2320;51.362;6.946;2022-11-12T11:11:32;16.80;99.90
4615;DHT22;2320;51.362;6.946;2022-11-12T11:14:18;16.90;99.90
4615;DHT22;2320;51.362;6.946;2022-11-12T11:16:50;17.00;99.90
4615;DHT22;2320;51.362;6.946;2022-11-12T11:19:16;16.90;99.90
4615;DHT22;2320;51.362;6.946;2022-11-12T11:29:30;17.10;99.90
4615;DHT22;2320;51.362;6.946;2022-11-12T11:32:00;17.00;99.90
4615;DHT22;2320;51.362;6.946;2022-11-12T11:34:30;17.00;99.90
4615;DHT22;2320;51.362;6.946;2022-11-12T11:57:15;17.50;99.90
4615;DHT22;2320;51.362;6.946;2022-11-12T11:59:55;17.70;99.90
4615;DHT22;2320;51.362;6.946;2022-11-12T12:05:05;17.80;99.90
4615;DHT22;2320;51.362;6.946;2022-11-12T12:10:24;17.80;99.90
4615;DHT22;2320;51.362;6.946;2022-11-12T12:12:59;17.70;99.90
4615;DHT22;2320;51.362;6.946;2022-11-12T12:15:36;17.90;99.90
4615;DHT22;2320;51.362;6.946;2022-11-12T12:18:22;17.80;99.90
4615;DHT22;2320;51.362;6.946;2022-11-12T12:20:57;17.80;99.90
4615;DHT22;2320;51.362;6.946;2022-11-12T12:26:20;17.60;99.90
4615;DHT22;2320;51.362;6.946;2022-11-12T12:28:52;17.50;99.90
4615;DHT22;2320;51.362;6.946;2022-11-12T12:31:22;17.50;99.90
4615;DHT22;2320;51.362;6.946;2022-11-12T12:36:58;17.60;99.90
4615;DHT22;2320;51.362;6.946;2022-11-12T12:39:07;17.70;99.90
4615;DHT22;2320;51.362;6.946;2022-11-12T12:41:41;17.60;99.90
4615;DHT22;2320;51.362;6.946;2022-11-12T12:44:08;17.70;99.90
4615;DHT22;2320;51.362;6.946;2022-11-12T12:46:39;17.70;99.90
4615;DHT22;2320;51.362;6.946;2022-11-12T12:49:05;17.80;99.90
4615;DHT22;2320;51.362;6.946;2022-11-12T12:51:31;17.80;99.90
4615;DHT22;2320;51.362;6.946;2022-11-12T12:53:57;17.90;99.90
4615;DHT22;2320;51.362;6.946;2022-11-12T12:58:51;17.80;99.90
4615;DHT22;2320;51.362;6.946;2022-11-12T13:03:50;17.80;99.90
4615;DHT22;2320;51.362;6.946;2022-11-12T13:08:51;17.80;99.90
4615;DHT22;2320;51.362;6.946;2022-11-12T13:11:45;17.70;99.90
4615;DHT22;2320;51.362;6.946;2022-11-12T13:19:34;17.90;99.90
4615;DHT22;2320;51.362;6.946;2022-11-12T13:43:06;18.00;99.90
4615;DHT22;2320;51.362;6.946;2022-11-12T13:45:36;18.00;99.90
4615;DHT22;2320;51.362;6.946;2022-11-12T13:48:11;18.10;99.90
4615;DHT22;2320;51.362;6.946;2022-11-12T13:50:37;18.00;99.90
4615;DHT22;2320;51.362;6.946;2022-11-12T13:53:05;18.20;99.90
4615;DHT22;2320;51.362;6.946;2022-11-12T13:55:32;18.20;99.90
4615;DHT22;2320;51.362;6.946;2022-11-12T13:57:57;18.10;99.90
4615;DHT22;2320;51.362;6.946;2022-11-12T14:00:24;18.10;99.90
4615;DHT22;2320;51.362;6.946;2022-11-12T14:02:55;18.00;99.90
4615;DHT22;2320;51.362;6.946;2022-11-12T14:05:25;18.00;99.90
4615;DHT22;2320;51.362;6.946;2022-11-12T14:10:24;17.80;99.90
4615;DHT22;2320;51.362;6.946;2022-11-12T14:20:38;18.00;99.90
4615;DHT22;2320;51.362;6.946;2022-11-12T14:23:10;18.00;99.90
4615;DHT22;2320;51.362;6.946;2022-11-12T14:25:44;17.90;99.90
4615;DHT22;2320;51.362;6.946;2022-11-12T14:28:23;17.70;99.90
4615;DHT22;2320;51.362;6.946;2022-11-12T14:30:49;17.70;99.90
4615;DHT22;2320;51.362;6.946;2022-11-12T14:33:18;17.70;99.90
4615;DHT22;2320;51.362;6.946;2022-11-12T14:35:45;17.90;99.90
4615;DHT22;2320;51.362;6.946;2022-11-12T14:38:13;18.00;99.90
4615;DHT22;2320;51.362;6.946;2022-11-12T14:40:44;17.90;99.90
4615;DHT22;2320;51.362;6.946;2022-11-12T14:45:55;17.80;99.90
4615;DHT22;2320;51.362;6.946;2022-11-12T14:48:22;17.50;99.90
4615;DHT22;2320;51.362;6.946;2022-11-12T14:50:48;17.30;99.90
4615;DHT22;2320;51.362;6.946;2022-11-12T14:53:22;17.10;99.90
4615;DHT22;2320;51.362;6.946;2022-11-12T14:55:50;17.10;99.90
4615;DHT22;2320;51.362;6.946;2022-11-12T14:58:17;16.90;99.90
4615;DHT22;2320;51.362;6.946;2022-11-12T15:00:44;16.70;99.90
4615;DHT22;2320;51.362;6.946;2022-11-12T15:03:11;16.60;99.90
4615;DHT22;2320;51.362;6.946;2022-11-12T15:08:29;16.20;99.90
4615;DHT22;2320;51.362;6.946;2022-11-12T15:10:55;16.20;99.90
4615;DHT22;2320;51.362;6.946;2022-11-12T15:13:22;16.10;99.90
4615;DHT22;2320;51.362;6.946;2022-11-12T15:16:00;16.00;99.90
4615;DHT22;2320;51.362;6.946;2022-11-12T15:18:28;16.10;99.90
4615;DHT22;2320;51.362;6.946;2022-11-12T15:23:48;15.90;99.90
4615;DHT22;2320;51.362;6.946;2022-11-12T15:26:22;15.70;99.90
4615;DHT22;2320;51.362;6.946;2022-11-12T15:29:01;15.40;99.90
4615;DHT22;2320;51.362;6.946;2022-11-12T15:31:26;15.20;99.90
4615;DHT22;2320;51.362;6.946;2022-11-12T15:33:52;14.90;99.90
4615;DHT22;2320;51.362;6.946;2022-11-12T15:36:18;14.90;99.90
4615;DHT22;2320;51.362;6.946;2022-11-12T15:38:51;14.90;99.90
4615;DHT22;2320;51.362;6.946;2022-11-12T15:41:24;14.80;99.90
4615;DHT22;2320;51.362;6.946;2022-11-12T15:43:50;14.70;99.90
4615;DHT22;2320;51.362;6.946;2022-11-12T15:46:16;14.80;99.90
4615;DHT22;2320;51.362;6.946;2022-11-12T15:48:41;14.70;99.90
4615;DHT22;2320;51.362;6.946;2022-11-12T15:51:10;14.40;99.90
4615;DHT22;2320;51.362;6.946;2022-11-12T15:53:36;14.30;99.90
4615;DHT22;2320;51.362;6.946;2022-11-12T15:56:02;14.30;99.90
4615;DHT22;2320;51.362;6.946;2022-11-12T15:58:31;14.10;99.90
4615;DHT22;2320;51.362;6.946;2022-11-12T16:00:57;14.30;99.90
4615;DHT22;2320;51.362;6.946;2022-11-12T16:03:22;14.00;99.90
4615;DHT22;2320;51.362;6.946;2022-11-12T16:05:48;14.00;99.90
4615;DHT22;2320;51.362;6.946;2022-11-12T16:08:13;14.00;99.90
4615;DHT22;2320;51.362;6.946;2022-11-12T16:10:40;13.70;99.90
4615;DHT22;2320;51.362;6.946;2022-11-12T16:13:06;13.40;99.90
4615;DHT22;2320;51.362;6.946;2022-11-12T16:15:32;13.20;99.90
4615;DHT22;2320;51.362;6.946;2022-11-12T16:17:57;13.30;99.90
4615;DHT22;2320;51.362;6.946;2022-11-12T16:20:31;13.10;99.90
4615;DHT22;2320;51.362;6.946;2022-11-12T16:22:57;12.90;99.90
4615;DHT22;2320;51.362;6.946;2022-11-12T16:25:24;12.60;99.90
4615;DHT22;2320;51.362;6.946;2022-11-12T16:27:52;12.60;99.90
4615;DHT22;2320;51.362;6.946;2022-11-12T16:30:22;12.70;99.90
4615;DHT22;2320;51.362;6.946;2022-11-12T16:32:48;12.50;99.90
4615;DHT22;2320;51.362;6.946;2022-11-12T16:35:13;12.40;99.90
4615;DHT22;2320;51.362;6.946;2022-11-12T16:37:40;12.30;99.90
4615;DHT22;2320;51.362;6.946;2022-11-12T16:40:08;12.30;99.90
4615;DHT22;2320;51.362;6.946;2022-11-12T16:42:35;12.30;99.90
4615;DHT22;2320;51.362;6.946;2022-11-12T16:45:01;12.30;99.90
4615;DHT22;2320;51.362;6.946;2022-11-12T16:47:27;12.10;99.90
4615;DHT22;2320;51.362;6.946;2022-11-12T16:49:52;11.90;99.90
4615;DHT22;2320;51.362;6.946;2022-11-12T16:52:18;11.80;99.90
4615;DHT22;2320;51.362;6.946;2022-11-12T16:54:43;11.70;99.90
4615;DHT22;2320;51.362;6.946;2022-11-12T16:57:12;11.60;99.90
4615;DHT22;2320;51.362;6.946;2022-11-12T16:59:37;11.50;99.90
4615;DHT22;2320;51.362;6.946;2022-11-12T17:02:03;11.30;99.90
4615;DHT22;2320;51.362;6.946;2022-11-12T17:04:28;11.10;99.90
4615;DHT22;2320;51.362;6.946;2022-11-12T17:06:53;11.00;99.90
4615;DHT22;2320;51.362;6.946;2022-11-12T17:09:19;11.00;99.90
4615;DHT22;2320;51.362;6.946;2022-11-12T17:11:45;11.20;99.90
4615;DHT22;2320;51.362;6.946;2022-11-12T17:14:10;11.30;99.90
4615;DHT22;2320;51.362;6.946;2022-11-12T17:16:35;11.20;99.90
4615;DHT22;2320;51.362;6.946;2022-11-12T17:19:01;11.20;99.90
4615;DHT22;2320;51.362;6.946;2022-11-12T17:21:27;11.20;99.90
4615;DHT22;2320;51.362;6.946;2022-11-12T17:23:53;11.10;99.90
4615;DHT22;2320;51.362;6.946;2022-11-12T17:26:20;10.90;99.90
4615;DHT22;2320;51.362;6.946;2022-11-12T17:28:46;10.80;99.90
4615;DHT22;2320;51.362;6.946;2022-11-12T17:31:15;10.70;99.90
4615;DHT22;2320;51.362;6.946;2022-11-12T17:33:41;10.60;99.90
4615;DHT22;2320;51.362;6.946;2022-11-12T17:36:08;10.40;99.90
4615;DHT22;2320;51.362;6.946;2022-11-12T17:38:34;10.20;99.90
4615;DHT22;2320;51.362;6.946;2022-11-12T17:40:59;10.20;99.90
4615;DHT22;2320;51.362;6.946;2022-11-12T17:43:25;10.20;99.90
4615;DHT22;2320;51.362;6.946;2022-11-12T17:45:51;10.20;99.90
4615;DHT22;2320;51.362;6.946;2022-11-12T17:48:17;10.10;99.90
4615;DHT22;2320;51.362;6.946;2022-11-12T17:50:42;10.00;99.90
4615;DHT22;2320;51.362;6.946;2022-11-12T17:53:07;10.10;99.90
4615;DHT22;2320;51.362;6.946;2022-11-12T17:55:33;10.00;99.90
4615;DHT22;2320;51.362;6.946;2022-11-12T17:57:58;10.00;99.90
4615;DHT22;2320;51.362;6.946;2022-11-12T18:00:24;9.80;99.90
4615;DHT22;2320;51.362;6.946;2022-11-12T18:02:50;9.90;99.90
4615;DHT22;2320;51.362;6.946;2022-11-12T18:05:16;9.90;99.90
4615;DHT22;2320;51.362;6.946;2022-11-12T18:07:42;9.90;99.90
4615;DHT22;2320;51.362;6.946;2022-11-12T18:10:07;9.80;99.90
4615;DHT22;2320;51.362;6.946;2022-11-12T18:12:32;9.70;99.90
4615;DHT22;2320;51.362;6.946;2022-11-12T18:14:58;9.60;99.90